createdAt,value
2022-07-30T00:30:43.503Z,0
2022-07-30T00:31:24.029Z,0
2022-07-30T00:32:04.438Z,0
2022-07-30T00:36:07.572Z,0
2022-07-30T00:36:48.054Z,0
2022-07-30T00:37:28.559Z,0
2022-07-30T00:38:09.016Z,0
2022-07-30T00:38:49.484Z,0
2022-07-30T00:39:29.935Z,0
2022-07-30T00:40:10.449Z,0
2022-07-30T00:40:50.915Z,0
2022-07-30T00:41:31.376Z,0
2022-07-30T00:42:11.824Z,0
2022-07-30T00:42:52.361Z,0
2022-07-30T00:50:17.705Z,0
2022-07-30T00:50:58.170Z,0
2022-07-30T00:51:38.634Z,0
2022-07-30T00:52:19.120Z,0
2022-07-30T00:53:40.331Z,0
2022-07-30T00:54:20.787Z,0
2022-07-30T00:55:01.356Z,0
2022-07-30T00:55:41.804Z,0
2022-07-30T00:56:22.298Z,0
2022-07-30T01:03:47.550Z,0
2022-07-30T01:04:28.024Z,0
2022-07-30T01:05:08.579Z,0
2022-07-30T01:05:49.069Z,0
2022-07-30T01:06:29.594Z,0
2022-07-30T01:07:10.057Z,0
2022-07-30T01:07:50.498Z,0
2022-07-30T01:08:31.039Z,0
2022-07-30T01:09:11.459Z,0
2022-07-30T01:09:51.970Z,0
2022-07-30T01:14:46.879Z,0
2022-07-30T01:15:27.382Z,0
2022-07-30T01:16:07.885Z,0
2022-07-30T01:20:51.288Z,0
2022-07-30T01:21:31.766Z,0
2022-07-30T01:22:12.263Z,0
2022-07-30T01:22:52.750Z,0
2022-07-30T01:23:33.237Z,0
2022-07-30T01:24:13.787Z,0
2022-07-30T01:24:54.258Z,0
2022-07-30T01:25:34.769Z,0
2022-07-30T01:26:15.229Z,0
2022-07-30T01:26:55.803Z,0
2022-07-30T01:27:36.221Z,0
2022-07-30T01:35:01.674Z,0
2022-07-30T01:35:42.166Z,0
2022-07-30T01:36:22.697Z,0
2022-07-30T01:37:03.529Z,0
2022-07-30T01:37:43.653Z,0
2022-07-30T01:38:24.175Z,0
2022-07-30T01:39:04.725Z,0
2022-07-30T01:39:45.273Z,0
2022-07-30T01:40:25.724Z,0
2022-07-30T01:41:06.225Z,0
2022-07-30T01:47:02.510Z,0
2022-07-30T01:47:42.694Z,0
2022-07-30T01:48:23.195Z,0
2022-07-30T01:53:06.644Z,0
2022-07-30T01:53:47.110Z,0
2022-07-30T01:54:27.586Z,0
2022-07-30T01:55:11.663Z,0
2022-07-30T01:55:48.544Z,0
2022-07-30T01:56:29.050Z,0
2022-07-30T01:57:09.496Z,0
2022-07-30T01:57:49.967Z,0
2022-07-30T01:58:30.515Z,0
2022-07-30T01:59:10.975Z,0
2022-07-30T01:59:51.513Z,0
2022-07-30T02:07:16.763Z,0
2022-07-30T02:07:57.362Z,0
2022-07-30T02:08:37.765Z,0
2022-07-30T02:09:18.235Z,0
2022-07-30T02:09:58.786Z,0
2022-07-30T02:10:39.286Z,0
2022-07-30T02:11:19.787Z,0
2022-07-30T02:12:40.768Z,0
2022-07-30T02:13:21.233Z,0
2022-07-30T02:19:29.233Z,0
2022-07-30T02:20:09.861Z,0
2022-07-30T02:20:48.762Z,0
2022-07-30T02:21:32.176Z,0
2022-07-30T02:22:08.895Z,0
2022-07-30T02:22:49.091Z,0
2022-07-30T02:23:29.519Z,0
2022-07-30T02:24:09.995Z,0
2022-07-30T02:24:50.488Z,0
2022-07-30T02:25:30.984Z,0
2022-07-30T02:26:11.455Z,0
2022-07-30T02:33:36.960Z,0
2022-07-30T02:34:17.434Z,0
2022-07-30T02:34:57.901Z,0
2022-07-30T02:35:38.399Z,0
2022-07-30T02:36:18.883Z,0
2022-07-30T02:36:59.601Z,0
2022-07-30T02:37:43.477Z,0
2022-07-30T02:38:20.384Z,0
2022-07-30T02:39:00.877Z,0
2022-07-30T02:39:41.365Z,0
2022-07-30T02:47:07.007Z,0
2022-07-30T02:47:47.234Z,0
2022-07-30T02:48:28.379Z,0
2022-07-30T02:49:08.275Z,0
2022-07-30T02:49:48.681Z,0
2022-07-30T02:50:29.221Z,0
2022-07-30T02:51:09.711Z,0
2022-07-30T02:51:50.181Z,0
2022-07-30T02:52:30.657Z,0
2022-07-30T02:53:11.103Z,0
2022-07-30T03:00:36.634Z,0
2022-07-30T03:01:17.190Z,0
2022-07-30T03:01:57.624Z,0
2022-07-30T03:02:38.039Z,0
2022-07-30T03:03:18.517Z,0
2022-07-30T03:03:59.119Z,0
2022-07-30T03:04:39.554Z,0
2022-07-30T03:05:20.031Z,0
2022-07-30T03:06:00.837Z,0
2022-07-30T03:06:41.330Z,0
2022-07-30T03:13:27.330Z,0
2022-07-30T03:14:06.811Z,0
2022-07-30T03:14:47.341Z,0
2022-07-30T03:15:27.762Z,0
2022-07-30T03:16:08.894Z,0
2022-07-30T03:16:49.375Z,0
2022-07-30T03:17:29.861Z,0
2022-07-30T03:18:10.368Z,0
2022-07-30T03:18:50.869Z,0
2022-07-30T03:19:31.426Z,0
2022-07-30T03:26:56.839Z,0
2022-07-30T03:27:37.296Z,0
2022-07-30T03:28:17.759Z,0
2022-07-30T03:28:58.334Z,0
2022-07-30T03:29:38.859Z,0
2022-07-30T03:30:19.387Z,0
2022-07-30T03:30:59.960Z,0
2022-07-30T03:31:40.377Z,0
2022-07-30T03:32:20.821Z,0
2022-07-30T03:33:01.327Z,0
2022-07-30T03:40:26.725Z,0
2022-07-30T03:41:07.163Z,0
2022-07-30T03:41:47.668Z,0
2022-07-30T03:42:28.154Z,0
2022-07-30T03:43:18.234Z,0
2022-07-30T03:43:49.077Z,0
2022-07-30T03:44:29.646Z,0
2022-07-30T03:45:10.105Z,0
2022-07-30T03:45:50.568Z,0
2022-07-30T03:46:31.150Z,0
2022-07-30T03:47:11.550Z,0
2022-07-30T03:54:37.086Z,0
2022-07-30T03:55:17.539Z,0
2022-07-30T03:55:58.052Z,0
2022-07-30T03:56:38.603Z,0
2022-07-30T03:57:20.465Z,0
2022-07-30T03:57:59.488Z,0
2022-07-30T03:58:39.992Z,0
2022-07-30T03:59:20.526Z,0
2022-07-30T04:00:00.997Z,0
2022-07-30T04:00:41.485Z,0
2022-07-30T04:08:06.813Z,0
2022-07-30T04:08:47.267Z,0
2022-07-30T04:09:27.731Z,0
2022-07-30T04:10:08.299Z,0
2022-07-30T04:10:48.769Z,0
2022-07-30T04:11:40.555Z,0
2022-07-30T04:16:04.526Z,0
2022-07-30T04:16:04.775Z,0
2022-07-30T04:16:40.745Z,0
2022-07-30T04:21:15.969Z,5
2022-07-30T04:21:54.368Z,5
2022-07-30T04:22:34.809Z,5
2022-07-30T04:23:15.308Z,5
2022-07-30T04:24:01.979Z,5
2022-07-30T04:24:36.264Z,5
2022-07-30T04:25:18.558Z,5
2022-07-30T04:25:57.283Z,10
2022-07-30T04:26:37.866Z,10
2022-07-30T04:27:18.335Z,10
2022-07-30T04:34:43.719Z,10
2022-07-30T04:35:50.535Z,10
2022-07-30T04:36:04.750Z,15
2022-07-30T04:36:45.212Z,15
2022-07-30T04:37:25.678Z,10
2022-07-30T04:38:06.184Z,10
2022-07-30T04:38:46.634Z,15
2022-07-30T04:39:27.096Z,10
2022-07-30T04:40:07.655Z,10
2022-07-30T04:40:48.077Z,15
2022-07-30T04:41:28.526Z,10
2022-07-30T04:45:02.729Z,15
2022-07-30T04:45:43.193Z,15
2022-07-30T04:46:24.808Z,15
2022-07-30T04:51:07.174Z,25
2022-07-30T04:51:47.673Z,25
2022-07-30T04:52:28.191Z,20
2022-07-30T04:53:08.701Z,20
2022-07-30T04:53:49.130Z,20
2022-07-30T04:54:29.625Z,30
2022-07-30T04:55:10.065Z,25
2022-07-30T04:55:50.542Z,25
2022-07-30T04:56:31.060Z,25
2022-07-30T04:57:11.510Z,25
2022-07-30T04:57:51.985Z,25
2022-07-30T05:05:17.355Z,60
2022-07-30T05:05:57.780Z,60
2022-07-30T05:06:38.104Z,60
2022-07-30T05:07:18.647Z,60
2022-07-30T05:07:59.146Z,65
2022-07-30T05:08:39.648Z,65
2022-07-30T05:09:20.111Z,60
2022-07-30T05:10:00.620Z,60
2022-07-30T05:10:41.103Z,70
2022-07-30T05:11:21.633Z,65
2022-07-30T05:12:02.046Z,70
2022-07-30T05:19:19.534Z,90
2022-07-30T05:19:59.937Z,90
2022-07-30T05:20:40.474Z,95
2022-07-30T05:26:04.333Z,110
2022-07-30T05:26:44.788Z,120
2022-07-30T05:27:25.282Z,125
2022-07-30T05:28:05.795Z,120
2022-07-30T05:28:49.552Z,125
2022-07-30T05:29:26.897Z,125
2022-07-30T05:30:07.469Z,130
2022-07-30T05:30:47.984Z,130
2022-07-30T05:31:28.713Z,130
2022-07-30T05:38:55.789Z,160
2022-07-30T05:39:36.196Z,160
2022-07-30T05:40:16.733Z,160
2022-07-30T05:40:57.269Z,160
2022-07-30T05:41:37.788Z,170
2022-07-30T05:42:18.316Z,170
2022-07-30T05:42:58.856Z,175
2022-07-30T05:49:44.491Z,220
2022-07-30T05:50:25.038Z,220
2022-07-30T05:51:05.479Z,215
2022-07-30T05:51:46.028Z,225
2022-07-30T05:52:26.544Z,235
2022-07-30T05:53:07.076Z,240
2022-07-30T05:53:47.534Z,240
2022-07-30T06:37:54.014Z,600
2022-07-30T06:38:22.431Z,620
2022-07-30T06:39:02.884Z,605
2022-07-30T06:39:53.631Z,615
2022-07-30T06:43:46.740Z,555
2022-07-30T06:44:27.159Z,430
2022-07-30T06:45:07.789Z,545
2022-07-30T06:45:48.658Z,610
2022-07-30T06:46:29.306Z,590
2022-07-30T06:47:09.945Z,485
2022-07-30T06:47:50.316Z,490
2022-07-30T06:48:30.782Z,560
2022-07-30T06:49:11.314Z,435
2022-07-30T06:59:59.715Z,215
2022-07-30T07:00:40.183Z,285
2022-07-30T07:01:20.673Z,280
2022-07-30T07:02:01.158Z,145
2022-07-30T07:04:45.016Z,115
2022-07-30T07:05:25.556Z,265
2022-07-30T07:06:06.037Z,105
2022-07-30T07:06:46.527Z,125
2022-07-30T07:07:41.075Z,305
2022-07-30T07:08:07.529Z,230
2022-07-30T07:08:47.964Z,130
2022-07-30T07:09:28.431Z,110
2022-07-30T07:10:08.932Z,115
2022-07-30T07:10:49.464Z,270
2022-07-30T07:18:14.856Z,155
2022-07-30T07:18:55.222Z,175
2022-07-30T07:19:59.283Z,280
2022-07-30T07:20:16.184Z,110
2022-07-30T07:20:56.664Z,110
2022-07-30T07:21:37.156Z,160
2022-07-30T07:22:17.658Z,145
2022-07-30T07:22:58.107Z,270
2022-07-30T07:23:39.887Z,110
2022-07-30T07:24:19.082Z,200
2022-07-30T07:24:59.907Z,260
2022-07-30T07:31:04.864Z,110
2022-07-30T07:32:02.405Z,100
2022-07-30T07:32:26.173Z,105
2022-07-30T07:33:06.616Z,90
2022-07-30T07:33:47.126Z,105
2022-07-30T07:34:27.545Z,110
2022-07-30T07:35:08.020Z,125
2022-07-30T07:35:50.129Z,165
2022-07-30T07:36:28.973Z,160
2022-07-30T07:37:09.470Z,135
2022-07-30T07:44:34.901Z,95
2022-07-30T07:45:15.425Z,125
2022-07-30T07:45:55.946Z,140
2022-07-30T07:46:36.405Z,150
2022-07-30T07:47:16.926Z,150
2022-07-30T07:47:57.362Z,155
2022-07-30T07:48:37.845Z,150
2022-07-30T07:49:18.384Z,150
2022-07-30T07:49:58.818Z,150
2022-07-30T07:50:39.329Z,145
2022-07-30T07:56:23.950Z,130
2022-07-30T07:57:04.785Z,135
2022-07-30T07:57:44.804Z,135
2022-07-30T08:03:09.731Z,120
2022-07-30T08:03:49.495Z,115
2022-07-30T08:04:30.587Z,115
2022-07-30T08:05:11.110Z,110
2022-07-30T08:05:54.201Z,115
2022-07-30T08:06:32.012Z,110
2022-07-30T08:07:12.793Z,110
2022-07-30T08:07:53.133Z,110
2022-07-30T08:15:58.881Z,110
2022-07-30T08:16:39.380Z,120
2022-07-30T08:17:19.998Z,95
2022-07-30T08:18:00.349Z,100
2022-07-30T08:18:40.865Z,90
2022-07-30T08:19:21.344Z,90
2022-07-30T08:20:01.783Z,95
2022-07-30T08:20:42.326Z,95
2022-07-30T08:22:03.250Z,95
2022-07-30T08:29:28.650Z,80
2022-07-30T08:30:09.159Z,80
2022-07-30T08:30:49.610Z,100
2022-07-30T08:31:30.145Z,95
2022-07-30T08:32:10.588Z,80
2022-07-30T08:32:51.046Z,75
2022-07-30T08:33:31.515Z,75
2022-07-30T08:34:12.030Z,70
2022-07-30T08:34:52.474Z,70
2022-07-30T08:35:32.959Z,75
2022-07-30T08:36:13.542Z,95
2022-07-30T08:43:38.779Z,90
2022-07-30T08:44:19.251Z,95
2022-07-30T08:44:59.719Z,95
2022-07-30T08:45:40.267Z,75
2022-07-30T08:46:20.746Z,70
2022-07-30T08:47:01.518Z,90
2022-07-30T08:47:41.815Z,90
2022-07-30T08:48:22.315Z,80
2022-07-30T08:49:06.412Z,95
2022-07-30T08:49:43.247Z,95
2022-07-30T08:57:08.643Z,80
2022-07-30T08:57:49.170Z,60
2022-07-30T08:58:29.743Z,55
2022-07-30T08:59:10.207Z,85
2022-07-30T08:59:53.110Z,85
2022-07-30T09:00:31.163Z,80
2022-07-30T09:01:11.625Z,90
2022-07-30T09:01:52.113Z,90
2022-07-30T09:02:32.585Z,90
2022-07-30T09:03:13.088Z,85
2022-07-30T09:09:18.685Z,80
2022-07-30T09:09:59.168Z,65
2022-07-30T09:10:39.654Z,60
2022-07-30T09:11:20.267Z,55
2022-07-30T09:12:00.827Z,55
2022-07-30T09:12:41.359Z,55
2022-07-30T09:13:21.830Z,55
2022-07-30T09:14:03.882Z,55
2022-07-30T09:14:42.833Z,50
2022-07-30T09:15:23.288Z,50
2022-07-30T09:22:48.666Z,65
2022-07-30T09:23:30.063Z,70
2022-07-30T09:24:10.506Z,70
2022-07-30T09:24:50.992Z,70
2022-07-30T09:25:31.518Z,70
2022-07-30T09:26:11.985Z,75
2022-07-30T09:26:52.515Z,80
2022-07-30T09:27:33.019Z,80
2022-07-30T09:32:58.466Z,65
2022-07-30T09:33:38.810Z,65
2022-07-30T09:34:19.429Z,60
2022-07-30T09:34:59.792Z,60
2022-07-30T09:35:40.249Z,60
2022-07-30T09:36:20.798Z,60
2022-07-30T09:37:01.372Z,60
2022-07-30T09:37:41.850Z,60
2022-07-30T09:38:22.331Z,60
2022-07-30T09:39:02.797Z,60
2022-07-30T09:39:43.298Z,60
2022-07-30T09:45:56.956Z,60
2022-07-30T09:46:29.098Z,55
2022-07-30T09:47:09.570Z,60
2022-07-30T09:47:50.173Z,60
2022-07-30T09:48:30.561Z,60
2022-07-30T09:49:11.117Z,60
2022-07-30T09:49:51.531Z,60
2022-07-30T09:50:32.064Z,60
2022-07-30T09:51:15.648Z,60
2022-07-30T09:51:54.893Z,60
2022-07-30T09:59:19.641Z,60
2022-07-30T09:59:59.816Z,65
2022-07-30T10:00:39.510Z,65
2022-07-30T10:01:19.912Z,65
2022-07-30T10:02:01.404Z,60
2022-07-30T10:02:40.923Z,60
2022-07-30T10:03:33.358Z,55
2022-07-30T10:04:01.877Z,55
2022-07-30T10:04:42.384Z,55
2022-07-30T10:05:22.911Z,55
2022-07-30T10:06:03.646Z,55
2022-07-30T10:10:50.844Z,55
2022-07-30T10:11:29.995Z,55
2022-07-30T10:12:10.456Z,55
2022-07-30T10:12:50.309Z,55
2022-07-30T10:13:33.422Z,55
2022-07-30T10:14:11.306Z,55
2022-07-30T10:14:51.785Z,55
2022-07-30T10:15:32.441Z,55
2022-07-30T10:16:12.726Z,55
2022-07-30T10:16:53.230Z,55
2022-07-30T10:24:18.811Z,50
2022-07-30T10:24:59.377Z,50
2022-07-30T10:25:48.705Z,50
2022-07-30T10:26:20.389Z,50
2022-07-30T10:27:01.100Z,50
2022-07-30T10:27:41.362Z,50
2022-07-30T10:28:21.854Z,50
2022-07-30T10:29:02.643Z,50
2022-07-30T10:29:43.005Z,50
2022-07-30T10:30:24.983Z,50
2022-07-30T10:37:48.837Z,50
2022-07-30T10:38:29.307Z,50
2022-07-30T10:39:09.824Z,50
2022-07-30T10:39:50.309Z,50
2022-07-30T10:40:31.064Z,50
2022-07-30T10:41:11.378Z,50
2022-07-30T10:41:54.049Z,50
2022-07-30T10:42:32.415Z,50
2022-07-30T10:43:12.914Z,50
2022-07-30T10:43:53.326Z,50
2022-07-30T10:50:46.456Z,50
2022-07-30T10:51:34.607Z,50
2022-07-30T10:52:07.304Z,50
2022-07-30T10:52:47.881Z,50
2022-07-30T10:53:28.591Z,50
2022-07-30T10:54:08.796Z,50
2022-07-30T10:54:49.252Z,50
2022-07-30T10:55:32.840Z,50
2022-07-30T10:56:10.206Z,50
2022-07-30T11:02:55.794Z,45
2022-07-30T11:03:40.926Z,45
2022-07-30T11:04:16.788Z,45
2022-07-30T11:04:57.299Z,45
2022-07-30T11:05:44.136Z,45
2022-07-30T11:06:24.146Z,45
2022-07-30T11:06:58.743Z,45
2022-07-30T11:07:39.221Z,45
2022-07-30T11:08:19.685Z,45
2022-07-30T11:15:46.092Z,45
2022-07-30T11:16:26.518Z,45
2022-07-30T11:17:07.045Z,45
2022-07-30T11:17:47.570Z,45
2022-07-30T11:18:28.711Z,45
2022-07-30T11:19:51.818Z,45
2022-07-30T11:20:29.434Z,50
2022-07-30T11:21:09.972Z,50
2022-07-30T11:21:50.423Z,50
2022-07-30T11:29:15.864Z,50
2022-07-30T11:29:56.367Z,50
2022-07-30T11:30:36.841Z,50
2022-07-30T11:31:17.349Z,50
2022-07-30T11:31:59.392Z,50
2022-07-30T11:32:38.267Z,50
2022-07-30T11:33:18.868Z,45
2022-07-30T11:33:59.221Z,45
2022-07-30T11:34:39.696Z,45
2022-07-30T11:35:20.158Z,45
2022-07-30T11:36:00.656Z,45
2022-07-30T11:43:57.692Z,50
2022-07-30T11:44:38.207Z,50
2022-07-30T11:45:18.670Z,50
2022-07-30T11:50:42.556Z,50
2022-07-30T11:51:23.547Z,45
2022-07-30T11:52:04.334Z,50
2022-07-30T11:52:44.491Z,50
2022-07-30T11:54:05.607Z,45
2022-07-30T11:54:46.107Z,45
2022-07-30T12:34:01.946Z,50
2022-07-30T12:34:43.072Z,50
2022-07-30T12:35:24.233Z,50
2022-07-30T12:36:06.140Z,50
2022-07-30T12:38:15.844Z,50
2022-07-30T12:38:56.931Z,50
2022-07-30T12:45:17.059Z,45
2022-07-30T12:45:57.767Z,45
2022-07-30T12:46:39.092Z,45
2022-07-30T12:48:41.988Z,50
2022-07-30T12:49:23.056Z,50
2022-07-30T12:50:03.221Z,50
2022-07-30T12:50:43.742Z,45
2022-07-30T12:51:24.245Z,45
2022-07-30T12:52:05.642Z,45
2022-07-30T12:58:51.174Z,45
2022-07-30T13:05:43.950Z,45
2022-07-30T13:06:25.364Z,45
2022-07-30T13:07:06.186Z,45
2022-07-30T13:07:46.800Z,45
2022-07-30T13:09:11.359Z,45
2022-07-30T13:09:51.745Z,45
2022-07-30T13:10:32.538Z,45
2022-07-30T13:11:12.943Z,45
2022-07-30T13:11:53.474Z,45
2022-07-30T13:16:00.200Z,45
2022-07-30T13:16:41.859Z,45
2022-07-30T13:17:21.798Z,45
2022-07-30T13:18:02.327Z,45
2022-07-30T13:18:42.757Z,45
2022-07-30T13:19:23.341Z,45
2022-07-30T13:22:13.171Z,50
2022-07-30T13:22:56.855Z,50
2022-07-30T13:29:01.808Z,40
2022-07-30T13:29:39.565Z,30
2022-07-30T13:30:20.214Z,30
2022-07-30T13:31:01.342Z,30
2022-07-30T13:31:42.681Z,35
2022-07-30T13:32:23.002Z,35
2022-07-30T13:33:03.612Z,35
2022-07-30T13:37:10.670Z,35
2022-07-30T13:40:52.009Z,45
2022-07-30T13:41:33.043Z,45
2022-07-30T13:42:14.123Z,45
2022-07-30T13:43:36.608Z,45
2022-07-30T13:44:17.581Z,50
2022-07-30T13:44:58.754Z,50
2022-07-30T13:47:11.233Z,50
2022-07-30T13:48:39.260Z,45
2022-07-30T13:49:21.706Z,45
2022-07-30T13:52:50.750Z,45
2022-07-30T13:53:32.033Z,45
2022-07-30T13:54:12.738Z,45
2022-07-30T13:54:53.509Z,45
2022-07-30T13:55:33.775Z,45
2022-07-30T13:56:14.482Z,45
2022-07-30T13:56:55.178Z,45
2022-07-30T13:57:39.265Z,45
2022-07-30T13:58:23.498Z,50
2022-07-30T13:59:07.276Z,50
2022-07-30T14:04:49.175Z,45
2022-07-30T14:05:30.709Z,45
2022-07-30T14:06:11.542Z,45
2022-07-30T14:10:22.508Z,45
2022-07-30T14:11:03.129Z,45
2022-07-30T14:11:43.637Z,45
2022-07-30T14:15:46.615Z,45
2022-07-30T14:17:07.796Z,45
2022-07-30T14:17:55.949Z,45
2022-07-30T14:18:28.887Z,45
2022-07-30T14:19:22.693Z,40
2022-07-30T14:19:50.799Z,40
2022-07-30T14:26:36.877Z,40
2022-07-30T14:27:19.957Z,40
2022-07-30T14:28:00.415Z,40
2022-07-30T14:28:40.989Z,40
2022-07-30T14:33:28.413Z,40
2022-07-30T14:34:07.834Z,40
2022-07-30T14:34:50.842Z,40
2022-07-30T14:35:30.587Z,40
2022-07-30T14:36:11.300Z,40
2022-07-30T14:42:56.785Z,40
2022-07-30T14:43:37.276Z,40
2022-07-30T14:44:18.041Z,40
2022-07-30T14:44:58.505Z,40
2022-07-30T14:45:38.960Z,40
2022-07-30T14:46:19.817Z,40
2022-07-30T14:47:00.485Z,40
2022-07-30T14:47:41.095Z,40
2022-07-30T14:51:47.272Z,35
2022-07-30T14:52:27.728Z,35
2022-07-30T14:53:08.748Z,35
2022-07-30T14:54:30.208Z,35
2022-07-30T14:55:11.428Z,35
2022-07-30T15:00:48.706Z,30
2022-07-30T15:02:10.612Z,35
2022-07-30T15:02:51.415Z,35
2022-07-30T15:08:56.318Z,35
2022-07-30T15:09:36.802Z,35
2022-07-30T15:10:17.395Z,30
2022-07-30T15:11:01.054Z,35
2022-07-30T15:11:56.614Z,35
2022-07-30T15:12:22.732Z,35
2022-07-30T15:12:59.292Z,35
2022-07-30T15:13:40.441Z,35
2022-07-30T15:19:49.468Z,35
2022-07-30T15:20:26.773Z,30
2022-07-30T15:21:07.287Z,35
2022-07-30T15:22:28.282Z,30
2022-07-30T15:23:13.123Z,35
2022-07-30T15:23:49.869Z,35
2022-07-30T15:24:30.360Z,35
2022-07-30T15:25:10.905Z,35
2022-07-30T15:25:51.365Z,30
2022-07-30T15:30:36.412Z,30
2022-07-30T15:31:17.258Z,30
2022-07-30T15:31:57.775Z,30
2022-07-30T15:32:38.503Z,30
2022-07-30T15:33:19.768Z,30
2022-07-30T15:34:00.553Z,30
2022-07-30T15:34:41.481Z,30
2022-07-30T15:39:28.242Z,30
2022-07-30T15:40:08.180Z,30
2022-07-30T15:40:48.901Z,30
2022-07-30T15:41:29.466Z,30
2022-07-30T15:42:10.503Z,30
2022-07-30T15:42:51.315Z,30
2022-07-30T15:51:59.391Z,30
2022-07-30T15:52:39.727Z,30
2022-07-30T15:53:20.402Z,30
2022-07-30T15:58:03.919Z,30
2022-07-30T15:58:44.511Z,30
2022-07-30T15:59:24.927Z,30
2022-07-30T16:00:05.453Z,30
2022-07-30T16:00:46.147Z,30
2022-07-30T16:01:27.214Z,30
2022-07-30T16:02:48.248Z,30
2022-07-30T16:03:28.716Z,30
2022-07-30T16:09:34.043Z,30
2022-07-30T16:10:14.628Z,30
2022-07-30T16:10:55.212Z,30
2022-07-30T16:11:35.690Z,25
2022-07-30T16:12:16.166Z,25
2022-07-30T16:12:56.734Z,25
2022-07-30T16:13:37.251Z,25
2022-07-30T16:14:17.734Z,25
2022-07-30T16:14:59.657Z,25
2022-07-30T16:15:38.865Z,25
2022-07-30T16:22:24.864Z,25
2022-07-30T16:23:07.100Z,25
2022-07-30T16:23:45.229Z,25
2022-07-30T16:24:25.776Z,25
2022-07-30T16:25:06.337Z,25
2022-07-30T16:25:46.796Z,20
2022-07-30T16:26:27.252Z,20
2022-07-30T16:27:07.780Z,20
2022-07-30T16:27:48.196Z,20
2022-07-30T16:28:28.744Z,20
2022-07-30T16:34:34.545Z,20
2022-07-30T16:35:15.027Z,20
2022-07-30T16:35:55.699Z,20
2022-07-30T16:36:36.015Z,20
2022-07-30T16:40:16.031Z,20
2022-07-30T16:40:57.141Z,20
2022-07-30T16:41:37.728Z,20
2022-07-30T16:42:58.757Z,20
2022-07-30T16:50:35.903Z,20
2022-07-30T16:51:16.302Z,20
2022-07-30T16:51:56.968Z,20
2022-07-30T16:52:38.218Z,20
2022-07-30T16:53:18.753Z,20
2022-07-30T16:53:59.215Z,20
2022-07-30T16:54:39.890Z,25
2022-07-30T16:55:21.504Z,25
2022-07-30T16:58:46.556Z,25
2022-07-30T16:59:28.691Z,25
2022-07-30T17:00:08.516Z,25
2022-07-30T17:00:49.078Z,25
2022-07-30T17:01:29.610Z,25
2022-07-30T17:02:10.083Z,25
2022-07-30T17:02:50.602Z,25
2022-07-30T17:10:57.245Z,25
2022-07-30T17:11:46.874Z,25
2022-07-30T17:12:17.884Z,25
2022-07-30T17:12:58.343Z,25
2022-07-30T17:13:38.878Z,25
2022-07-30T17:14:19.393Z,25
2022-07-30T17:15:40.369Z,25
2022-07-30T17:16:20.796Z,25
2022-07-30T17:17:01.365Z,25
2022-07-30T17:22:27.117Z,20
2022-07-30T17:23:07.835Z,20
2022-07-30T17:23:48.380Z,20
2022-07-30T17:24:28.840Z,20
2022-07-30T17:25:10.165Z,20
2022-07-30T17:29:33.857Z,20
2022-07-30T17:30:13.684Z,20
2022-07-30T17:30:54.303Z,20
2022-07-30T17:34:58.011Z,20
2022-07-30T17:35:38.641Z,20
2022-07-30T17:36:18.898Z,20
2022-07-30T17:36:59.366Z,15
2022-07-30T17:37:39.932Z,20
2022-07-30T17:38:21.471Z,20
2022-07-30T17:39:02.175Z,20
2022-07-30T17:40:18.912Z,15
2022-07-30T17:46:28.130Z,15
2022-07-30T17:47:12.486Z,15
2022-07-30T17:47:49.142Z,15
2022-07-30T17:48:29.781Z,15
2022-07-30T17:49:10.476Z,15
2022-07-30T17:49:50.939Z,15
2022-07-30T17:51:12.869Z,15
2022-07-30T17:51:52.765Z,15
2022-07-30T18:34:42.218Z,5
2022-07-30T18:35:23.277Z,5
2022-07-30T18:36:07.505Z,5
2022-07-30T18:36:48.174Z,5
2022-07-30T18:38:51.175Z,0
2022-07-30T18:39:30.701Z,0
2022-07-30T18:40:11.332Z,0
2022-07-30T18:40:51.693Z,0
2022-07-30T18:41:32.423Z,0
2022-07-30T18:42:14.130Z,0
2022-07-30T18:42:54.895Z,0
2022-07-30T18:46:22.181Z,0
2022-07-30T18:50:52.614Z,0
2022-07-30T18:54:13.121Z,0
2022-07-30T18:59:30.311Z,0
2022-07-30T19:00:30.995Z,0
2022-07-30T19:01:22.268Z,0
2022-07-30T19:10:09.591Z,0
2022-07-30T19:10:48.749Z,0
2022-07-30T19:11:30.971Z,0
2022-07-30T19:17:56.888Z,0
2022-07-30T19:18:47.810Z,0
2022-07-30T19:24:23.775Z,0
2022-07-30T19:25:04.719Z,0
2022-07-30T19:25:51.726Z,0
2022-07-30T19:26:37.715Z,0
2022-07-30T19:27:21.990Z,0
2022-07-30T19:28:08.351Z,0
2022-07-30T19:28:49.094Z,0
2022-07-30T19:29:35.245Z,0
2022-07-30T19:30:59.202Z,0
2022-07-30T19:31:44.178Z,0
2022-07-30T19:32:30.301Z,0
2022-07-30T19:33:14.989Z,0
2022-07-30T19:38:56.024Z,0
2022-07-30T19:39:58.789Z,0
2022-07-30T19:40:34.718Z,0
2022-07-30T19:41:23.074Z,0
2022-07-30T19:42:13.387Z,0
2022-07-30T19:43:06.496Z,0
2022-07-30T19:43:57.873Z,0
2022-07-30T19:44:48.293Z,0
2022-07-30T19:45:47.056Z,0
2022-07-30T19:46:27.474Z,0
2022-07-30T19:47:16.626Z,0
2022-07-30T19:48:04.750Z,0
2022-07-30T19:48:54.616Z,0
2022-07-30T19:49:46.197Z,0
2022-07-30T19:50:34.698Z,0
2022-07-30T19:51:25.236Z,0
2022-07-30T19:53:01.521Z,0
2022-07-30T19:53:53.456Z,0
2022-07-30T19:54:41.378Z,0
2022-07-30T19:55:34.938Z,0
2022-07-30T19:56:21.475Z,0
2022-07-30T19:57:12.199Z,0
2022-07-30T19:58:01.118Z,0
2022-07-30T19:58:50.951Z,0
2022-07-30T19:59:59.787Z,0
2022-07-30T20:00:35.730Z,0
2022-07-30T20:09:49.258Z,0
2022-07-30T20:10:39.805Z,0
2022-07-30T20:11:34.959Z,0
2022-07-30T20:12:17.908Z,0
2022-07-30T20:13:08.027Z,0
2022-07-30T20:13:59.144Z,0
2022-07-30T20:14:50.435Z,0
2022-07-30T20:15:40.967Z,0
2022-07-30T20:16:31.234Z,0
2022-07-30T20:17:19.728Z,0
2022-07-30T20:18:59.264Z,0
2022-07-30T20:19:53.158Z,0
2022-07-30T20:20:47.106Z,0
2022-07-30T20:23:21.637Z,0
2022-07-30T20:24:01.990Z,0
2022-07-30T20:35:40.048Z,0
2022-07-30T20:36:28.723Z,0
2022-07-30T20:37:21.744Z,0
2022-07-30T20:38:11.294Z,0
2022-07-30T20:39:01.670Z,0
2022-07-30T20:39:52.671Z,0
2022-07-30T20:40:43.774Z,0
2022-07-30T21:06:23.968Z,0
2022-07-30T21:07:05.837Z,0
2022-07-30T21:07:46.307Z,0
2022-07-30T21:10:37.891Z,0
2022-07-30T21:11:20.941Z,0
2022-07-30T21:12:03.296Z,0
2022-07-30T21:12:44.682Z,0
2022-07-30T21:13:24.984Z,0
2022-07-30T21:14:05.160Z,0
2022-07-30T21:20:10.617Z,0
2022-07-30T21:20:51.179Z,0
2022-07-30T21:21:38.321Z,0
2022-07-30T21:22:12.298Z,0
2022-07-30T21:22:52.866Z,0
2022-07-30T21:23:33.948Z,0
2022-07-30T21:24:13.926Z,0
2022-07-30T21:24:54.490Z,0
2022-07-30T21:25:35.133Z,0
2022-07-30T21:30:20.353Z,0
2022-07-30T21:31:00.938Z,0
2022-07-30T21:34:35.419Z,0
2022-07-30T21:35:11.747Z,0
2022-07-30T21:35:51.911Z,0
2022-07-30T21:36:32.367Z,0
2022-07-30T21:37:15.605Z,0
2022-07-30T21:37:53.529Z,0
2022-07-30T21:38:34.112Z,0
2022-07-30T21:39:14.606Z,0
2022-07-30T21:43:00.521Z,0
2022-07-30T21:43:49.318Z,0
2022-07-30T21:44:37.715Z,0
2022-07-30T21:51:30.679Z,0
2022-07-30T21:52:20.215Z,0
2022-07-30T21:53:09.750Z,0
2022-07-30T21:53:58.063Z,0
2022-07-30T21:54:48.509Z,0
2022-07-30T21:55:52.543Z,0
2022-07-30T21:56:25.269Z,0
2022-07-30T21:57:14.539Z,0
2022-07-30T21:58:04.044Z,0
2022-07-30T21:58:52.766Z,0
2022-07-30T21:59:44.419Z,0
2022-07-30T22:00:33.875Z,0
2022-07-30T22:01:21.733Z,0
2022-07-30T22:02:15.725Z,0
2022-07-30T22:04:01.795Z,0
2022-07-30T22:04:09.200Z,0
2022-07-30T22:05:09.881Z,0
2022-07-30T22:21:57.021Z,0
2022-07-30T22:25:21.550Z,0
2022-07-30T22:26:09.083Z,0
2022-07-30T22:26:57.646Z,0
2022-07-30T22:27:55.693Z,0
2022-07-30T22:28:37.121Z,0
2022-07-30T22:29:25.640Z,0
2022-07-30T22:30:11.215Z,0
2022-07-30T22:30:51.655Z,0
2022-07-30T22:31:39.381Z,0
2022-07-30T22:32:12.609Z,0
2022-07-30T22:37:37.772Z,0
2022-07-30T22:38:19.364Z,0
2022-07-30T22:42:03.947Z,0
2022-07-30T22:42:46.597Z,0
2022-07-30T22:43:26.845Z,0
2022-07-30T22:44:08.819Z,0
2022-07-30T22:44:48.421Z,0
2022-07-30T22:45:45.047Z,0
2022-07-30T22:50:21.298Z,0
2022-07-30T22:51:00.291Z,0
2022-07-30T22:54:10.229Z,0
2022-07-30T23:00:12.482Z,0
2022-07-30T23:00:58.580Z,0
2022-07-30T23:01:47.800Z,0
2022-07-30T23:02:37.019Z,0
2022-07-30T23:03:17.644Z,0
2022-07-30T23:03:58.192Z,0
2022-07-30T23:04:38.732Z,0
2022-07-30T23:05:19.313Z,0
2022-07-30T23:06:00.179Z,0
2022-07-30T23:06:41.143Z,0
2022-07-30T23:07:21.246Z,0
2022-07-30T23:08:01.833Z,0
2022-07-30T23:08:42.283Z,0
2022-07-30T23:09:22.942Z,0
2022-07-30T23:12:16.202Z,0
2022-07-30T23:16:08.467Z,0
2022-07-30T23:16:50.224Z,0
2022-07-30T23:17:29.518Z,0
2022-07-30T23:18:09.917Z,0
2022-07-30T23:18:50.455Z,0